Uni-arise — 3FSV7 — position and weather

sailwx.info

Track history (hours):
 
Tides and Currents Weather Stations Pressure Air Temp Water Temp Dewpoint Dewpoint Depression Visibility Wind Speed Wind Dir Waves Ship Positions

Uni-arise

Last reported at 2016-Apr-30 06:18 UTC. Time now 2016-Apr-30 11:09 UTC.
Position N 22°47' E 120°03'.

Length 165 m; draft 7.8 m.

Type: Ship (hazmat cat D). MMSI: 351608000.

Date/timePositionNaut miles runAvg speedWind from/ knotsBaromVisibWave heightAir tempDewpointWater temp
2016-Apr-30 06:18N 22°47' E 120°03'1115.1
2016-Apr-30 05:33N 22°37' E 120°08'1010.3
2016-Apr-30 04:33N 22°33' E 120°19'1 0.1
2016-Apr-29 17:22N 22°33' E 120°20'5 6.6
2016-Apr-29 16:33N 22°32' E 120°14'4 4.1
2016-Apr-29 15:33N 22°29' E 120°12'1 1.0
2016-Apr-29 14:34N 22°29' E 120°11'2 2.4
2016-Apr-29 13:34N 22°30' E 120°08'33313.3
2016-Apr-28 12:32N 22°20' E 114°08'0 0.0
2016-Apr-28 11:22N 22°20' E 114°08'0 0.0
2016-Apr-28 10:22N 22°20' E 114°08'0 0.0
2016-Apr-28 09:28N 22°20' E 114°08'0 0.0
2016-Apr-28 08:25N 22°20' E 114°08'0 0.0
2016-Apr-28 07:28N 22°20' E 114°08'0 0.0
2016-Apr-28 06:28N 22°20' E 114°08'0 0.0
2016-Apr-28 05:31N 22°20' E 114°08'0 0.0
2016-Apr-28 04:10N 22°20' E 114°08'0 0.0
2016-Apr-28 03:04N 22°20' E 114°08'0 0.0
2016-Apr-28 02:22N 22°20' E 114°08'0 0.0
2016-Apr-28 01:16N 22°20' E 114°08'0 0.0
2016-Apr-28 00:28N 22°20' E 114°08'0 0.1
2016-Apr-27 23:32N 22°20' E 114°08'17 8.5
2016-Apr-27 21:33N 22°08' E 114°20'  
2016-Apr-23 08:33N 33°40' E 129°57'1414.6
2016-Apr-23 07:33N 33°44' E 130°13'9 8.8
2016-Apr-23 06:33N 33°38' E 130°21'3 3.0
2016-Apr-23 05:31N 33°39' E 130°24'0 0.0
2016-Apr-23 04:31N 33°39' E 130°24'0 0.0
2016-Apr-23 03:31N 33°39' E 130°24'0 0.0
2016-Apr-23 02:31N 33°39' E 130°24'0 0.0
2016-Apr-23 01:31N 33°39' E 130°24'0 0.0
2016-Apr-23 00:31N 33°39' E 130°24'6 6.4
2016-Apr-22 23:33N 33°39' E 130°17'1 0.6
2016-Apr-22 22:31N 33°39' E 130°16'0 0.0
2016-Apr-22 21:31N 33°39' E 130°16'0 0.0
2016-Apr-22 20:31N 33°39' E 130°16'0 0.0
2016-Apr-22 19:28N 33°39' E 130°16'0 0.0
2016-Apr-22 17:31N 33°39' E 130°16'0 0.1
2016-Apr-22 16:30N 33°39' E 130°16'6 5.9
2016-Apr-22 15:30N 33°44' E 130°16'1313.6
2016-Apr-22 14:33N 33°56' E 130°22'227 8.1
2016-Apr-21 10:33N 34°01' E 134°56'1312.9
2016-Apr-21 09:32N 34°14' E 134°57'1312.9
2016-Apr-21 08:33N 34°25' E 135°05'1514.9
2016-Apr-21 07:33N 34°36' E 135°17'4 3.7
2016-Apr-21 06:28N 34°40' E 135°14'0 0.0
2016-Apr-21 05:28N 34°40' E 135°14'0 0.0
2016-Apr-21 04:22N 34°40' E 135°14'0 0.0
2016-Apr-21 03:28N 34°40' E 135°14'0 0.0
2016-Apr-21 02:28N 34°40' E 135°14'0 0.0
2016-Apr-21 01:28N 34°40' E 135°14'0 0.0
2016-Apr-21 00:22N 34°40' E 135°14'0 0.0
2016-Apr-20 23:10N 34°40' E 135°14'0 0.0
2016-Apr-20 22:28N 34°40' E 135°14'5 5.7
2016-Apr-20 21:33N 34°38' E 135°20'3 3.2
2016-Apr-20 20:31N 34°39' E 135°24'0 0.0
2016-Apr-20 19:31N 34°39' E 135°24'0 0.0
2016-Apr-20 18:31N 34°39' E 135°24'0 0.0
2016-Apr-20 17:31N 34°39' E 135°24'0 0.0
2016-Apr-20 16:31N 34°39' E 135°24'0 0.0
2016-Apr-20 15:31N 34°39' E 135°24'0 0.0
2016-Apr-20 14:31N 34°39' E 135°24'0 0.0
2016-Apr-20 13:25N 34°39' E 135°24'0 0.0
2016-Apr-20 12:31N 34°39' E 135°24'0 0.0
2016-Apr-20 10:31N 34°39' E 135°24'0 0.0
2016-Apr-20 09:31N 34°39' E 135°24'4 4.6
2016-Apr-20 08:34N 34°36' E 135°20'1414.3
2016-Apr-20 07:33N 34°26' E 135°08'1414.1
2016-Apr-20 06:34N 34°14' E 134°59'  
Track history (hours):
 
Tides and Currents Weather Stations Pressure Air Temp Water Temp Dewpoint Dewpoint Depression Visibility Wind Speed Wind Dir Waves Ship Positions

Uni-arise

Last reported at 2016-Apr-30 06:18 UTC. Time now 2016-Apr-30 11:09 UTC.
Position N 22°47' E 120°03'.

Length 165 m; draft 7.8 m.

Type: Ship (hazmat cat D). MMSI: 351608000.

Date/timePositionNaut miles runAvg speedWind from/ knotsBaromVisibWave heightAir tempDewpointWater temp
2016-Apr-30 06:18N 22°47' E 120°03'1115.1
2016-Apr-30 05:33N 22°37' E 120°08'1010.3
2016-Apr-30 04:33N 22°33' E 120°19'1 0.1
2016-Apr-29 17:22N 22°33' E 120°20'5 6.6
2016-Apr-29 16:33N 22°32' E 120°14'4 4.1
2016-Apr-29 15:33N 22°29' E 120°12'1 1.0
2016-Apr-29 14:34N 22°29' E 120°11'2 2.4
2016-Apr-29 13:34N 22°30' E 120°08'33313.3
2016-Apr-28 12:32N 22°20' E 114°08'0 0.0
2016-Apr-28 11:22N 22°20' E 114°08'0 0.0
2016-Apr-28 10:22N 22°20' E 114°08'0 0.0
2016-Apr-28 09:28N 22°20' E 114°08'0 0.0
2016-Apr-28 08:25N 22°20' E 114°08'0 0.0
2016-Apr-28 07:28N 22°20' E 114°08'0 0.0
2016-Apr-28 06:28N 22°20' E 114°08'0 0.0
2016-Apr-28 05:31N 22°20' E 114°08'0 0.0
2016-Apr-28 04:10N 22°20' E 114°08'0 0.0
2016-Apr-28 03:04N 22°20' E 114°08'0 0.0
2016-Apr-28 02:22N 22°20' E 114°08'0 0.0
2016-Apr-28 01:16N 22°20' E 114°08'0 0.0
2016-Apr-28 00:28N 22°20' E 114°08'0 0.1
2016-Apr-27 23:32N 22°20' E 114°08'17 8.5
2016-Apr-27 21:33N 22°08' E 114°20'  
2016-Apr-23 08:33N 33°40' E 129°57'1414.6
2016-Apr-23 07:33N 33°44' E 130°13'9 8.8
2016-Apr-23 06:33N 33°38' E 130°21'3 3.0
2016-Apr-23 05:31N 33°39' E 130°24'0 0.0
2016-Apr-23 04:31N 33°39' E 130°24'0 0.0
2016-Apr-23 03:31N 33°39' E 130°24'0 0.0
2016-Apr-23 02:31N 33°39' E 130°24'0 0.0
2016-Apr-23 01:31N 33°39' E 130°24'0 0.0
2016-Apr-23 00:31N 33°39' E 130°24'6 6.4
2016-Apr-22 23:33N 33°39' E 130°17'1 0.6
2016-Apr-22 22:31N 33°39' E 130°16'0 0.0
2016-Apr-22 21:31N 33°39' E 130°16'0 0.0
2016-Apr-22 20:31N 33°39' E 130°16'0 0.0
2016-Apr-22 19:28N 33°39' E 130°16'0 0.0
2016-Apr-22 17:31N 33°39' E 130°16'0 0.1
2016-Apr-22 16:30N 33°39' E 130°16'6 5.9
2016-Apr-22 15:30N 33°44' E 130°16'1313.6
2016-Apr-22 14:33N 33°56' E 130°22'227 8.1
2016-Apr-21 10:33N 34°01' E 134°56'1312.9
2016-Apr-21 09:32N 34°14' E 134°57'1312.9
2016-Apr-21 08:33N 34°25' E 135°05'1514.9
2016-Apr-21 07:33N 34°36' E 135°17'4 3.7
2016-Apr-21 06:28N 34°40' E 135°14'0 0.0
2016-Apr-21 05:28N 34°40' E 135°14'0 0.0
2016-Apr-21 04:22N 34°40' E 135°14'0 0.0
2016-Apr-21 03:28N 34°40' E 135°14'0 0.0
2016-Apr-21 02:28N 34°40' E 135°14'0 0.0
2016-Apr-21 01:28N 34°40' E 135°14'0 0.0
2016-Apr-21 00:22N 34°40' E 135°14'0 0.0
2016-Apr-20 23:10N 34°40' E 135°14'0 0.0
2016-Apr-20 22:28N 34°40' E 135°14'5 5.7
2016-Apr-20 21:33N 34°38' E 135°20'3 3.2
2016-Apr-20 20:31N 34°39' E 135°24'0 0.0
2016-Apr-20 19:31N 34°39' E 135°24'0 0.0
2016-Apr-20 18:31N 34°39' E 135°24'0 0.0
2016-Apr-20 17:31N 34°39' E 135°24'0 0.0
2016-Apr-20 16:31N 34°39' E 135°24'0 0.0
2016-Apr-20 15:31N 34°39' E 135°24'0 0.0
2016-Apr-20 14:31N 34°39' E 135°24'0 0.0
2016-Apr-20 13:25N 34°39' E 135°24'0 0.0
2016-Apr-20 12:31N 34°39' E 135°24'0 0.0
2016-Apr-20 10:31N 34°39' E 135°24'0 0.0
2016-Apr-20 09:31N 34°39' E 135°24'4 4.6
2016-Apr-20 08:34N 34°36' E 135°20'1414.3
2016-Apr-20 07:33N 34°26' E 135°08'1414.1
2016-Apr-20 06:34N 34°14' E 134°59'  

Dump ship's entire track history